sensor_id;sensor_type;location;lat;lon;timestamp;temperature;humidity
12374;DHT22;6251;51.762;8.660;2023-03-30T01:06:19;8.50;99.90
12374;DHT22;6251;51.762;8.660;2023-03-30T02:47:59;9.20;99.90
12374;DHT22;6251;51.762;8.660;2023-03-30T02:58:18;9.20;99.90
12374;DHT22;6251;51.762;8.660;2023-03-30T04:09:25;10.50;99.90
12374;DHT22;6251;51.762;8.660;2023-03-30T04:19:26;10.90;99.90
12374;DHT22;6251;51.762;8.660;2023-03-30T04:29:27;11.40;99.90
12374;DHT22;6251;51.762;8.660;2023-03-30T04:39:29;11.70;99.90
12374;DHT22;6251;51.762;8.660;2023-03-30T04:49:30;11.90;99.90
12374;DHT22;6251;51.762;8.660;2023-03-30T04:59:30;11.80;99.90
12374;DHT22;6251;51.762;8.660;2023-03-30T05:09:31;11.90;99.90
12374;DHT22;6251;51.762;8.660;2023-03-30T05:19:31;12.00;99.90
12374;DHT22;6251;51.762;8.660;2023-03-30T05:29:33;12.20;99.90
12374;DHT22;6251;51.762;8.660;2023-03-30T05:39:33;12.30;99.90
12374;DHT22;6251;51.762;8.660;2023-03-30T05:49:34;12.40;99.90
12374;DHT22;6251;51.762;8.660;2023-03-30T05:59:35;12.30;99.90
12374;DHT22;6251;51.762;8.660;2023-03-30T06:09:36;12.20;99.90
12374;DHT22;6251;51.762;8.660;2023-03-30T06:19:37;12.30;99.90
12374;DHT22;6251;51.762;8.660;2023-03-30T06:29:38;12.30;99.90
12374;DHT22;6251;51.762;8.660;2023-03-30T06:39:39;12.40;99.90
12374;DHT22;6251;51.762;8.660;2023-03-30T06:49:39;12.50;99.90
12374;DHT22;6251;51.762;8.660;2023-03-30T06:59:40;12.70;99.90
12374;DHT22;6251;51.762;8.660;2023-03-30T07:09:40;12.80;99.90
12374;DHT22;6251;51.762;8.660;2023-03-30T07:19:41;13.10;99.90
12374;DHT22;6251;51.762;8.660;2023-03-30T07:29:42;13.40;99.90
12374;DHT22;6251;51.762;8.660;2023-03-30T07:39:42;13.40;99.90
12374;DHT22;6251;51.762;8.660;2023-03-30T07:49:43;13.50;99.90
12374;DHT22;6251;51.762;8.660;2023-03-30T07:59:44;13.70;99.90
12374;DHT22;6251;51.762;8.660;2023-03-30T08:09:45;14.20;99.90
12374;DHT22;6251;51.762;8.660;2023-03-30T08:19:45;14.70;99.90
12374;DHT22;6251;51.762;8.660;2023-03-30T08:29:46;14.90;99.90
12374;DHT22;6251;51.762;8.660;2023-03-30T08:39:48;14.90;99.90
12374;DHT22;6251;51.762;8.660;2023-03-30T08:50:13;15.30;99.90
12374;DHT22;6251;51.762;8.660;2023-03-30T09:10:51;15.70;99.90
12374;DHT22;6251;51.762;8.660;2023-03-30T09:20:55;15.70;99.90
12374;DHT22;6251;51.762;8.660;2023-03-30T09:31:17;15.60;99.90
12374;DHT22;6251;51.762;8.660;2023-03-30T09:41:42;15.40;99.90
12374;DHT22;6251;51.762;8.660;2023-03-30T09:52:06;15.30;99.90
12374;DHT22;6251;51.762;8.660;2023-03-30T10:02:18;15.30;99.90
12374;DHT22;6251;51.762;8.660;2023-03-30T10:12:20;15.00;99.90
12374;DHT22;6251;51.762;8.660;2023-03-30T10:22:23;14.50;99.90
12374;DHT22;6251;51.762;8.660;2023-03-30T10:32:28;14.20;99.90
12374;DHT22;6251;51.762;8.660;2023-03-30T10:42:31;14.10;99.90
12374;DHT22;6251;51.762;8.660;2023-03-30T10:53:18;14.00;99.90
12374;DHT22;6251;51.762;8.660;2023-03-30T11:03:26;14.10;99.90
12374;DHT22;6251;51.762;8.660;2023-03-30T11:13:39;14.30;99.90
12374;DHT22;6251;51.762;8.660;2023-03-30T11:23:53;14.30;99.90
12374;DHT22;6251;51.762;8.660;2023-03-30T11:34:13;12.80;99.90
12374;DHT22;6251;51.762;8.660;2023-03-30T11:44:14;12.10;99.90
12374;DHT22;6251;51.762;8.660;2023-03-30T12:04:34;12.00;99.90
12374;DHT22;6251;51.762;8.660;2023-03-30T12:25:23;13.20;99.90
12374;DHT22;6251;51.762;8.660;2023-03-30T12:35:50;13.10;99.90
12374;DHT22;6251;51.762;8.660;2023-03-30T12:46:07;13.60;99.90
12374;DHT22;6251;51.762;8.660;2023-03-30T13:06:34;14.50;99.90
12374;DHT22;6251;51.762;8.660;2023-03-30T13:37:46;14.20;99.90
12374;DHT22;6251;51.762;8.660;2023-03-30T13:58:22;14.20;99.90
12374;DHT22;6251;51.762;8.660;2023-03-30T14:08:24;14.10;99.90
12374;DHT22;6251;51.762;8.660;2023-03-30T14:18:25;13.80;99.90
12374;DHT22;6251;51.762;8.660;2023-03-30T14:28:28;12.70;99.90
12374;DHT22;6251;51.762;8.660;2023-03-30T14:38:32;12.30;99.90
12374;DHT22;6251;51.762;8.660;2023-03-30T14:48:39;12.00;99.90
12374;DHT22;6251;51.762;8.660;2023-03-30T14:58:41;11.70;99.90
12374;DHT22;6251;51.762;8.660;2023-03-30T15:08:45;11.90;99.90
12374;DHT22;6251;51.762;8.660;2023-03-30T15:18:46;12.10;99.90
12374;DHT22;6251;51.762;8.660;2023-03-30T15:28:50;12.40;99.90
12374;DHT22;6251;51.762;8.660;2023-03-30T15:38:54;12.60;99.90
12374;DHT22;6251;51.762;8.660;2023-03-30T15:48:56;12.60;99.90
12374;DHT22;6251;51.762;8.660;2023-03-30T15:58:57;12.70;99.90
12374;DHT22;6251;51.762;8.660;2023-03-30T16:08:58;12.70;99.90
12374;DHT22;6251;51.762;8.660;2023-03-30T16:18:59;14.20;99.90
12374;DHT22;6251;51.762;8.660;2023-03-30T16:29:00;13.60;99.90
12374;DHT22;6251;51.762;8.660;2023-03-30T16:39:00;13.10;99.90
12374;DHT22;6251;51.762;8.660;2023-03-30T16:49:01;12.60;99.90
12374;DHT22;6251;51.762;8.660;2023-03-30T16:59:03;12.10;99.90
12374;DHT22;6251;51.762;8.660;2023-03-30T17:09:03;11.50;99.90
12374;DHT22;6251;51.762;8.660;2023-03-30T17:19:08;11.20;99.90
12374;DHT22;6251;51.762;8.660;2023-03-30T17:29:09;11.60;99.90
12374;DHT22;6251;51.762;8.660;2023-03-30T17:39:12;11.50;99.90
12374;DHT22;6251;51.762;8.660;2023-03-30T17:49:15;11.10;99.90
12374;DHT22;6251;51.762;8.660;2023-03-30T17:59:16;10.80;99.90
12374;DHT22;6251;51.762;8.660;2023-03-30T18:09:17;10.70;99.90
12374;DHT22;6251;51.762;8.660;2023-03-30T18:19:18;10.70;99.90
12374;DHT22;6251;51.762;8.660;2023-03-30T18:29:19;10.70;99.90
12374;DHT22;6251;51.762;8.660;2023-03-30T18:39:19;10.70;99.90
12374;DHT22;6251;51.762;8.660;2023-03-30T18:49:20;10.60;99.90
12374;DHT22;6251;51.762;8.660;2023-03-30T18:59:23;10.70;99.90
12374;DHT22;6251;51.762;8.660;2023-03-30T19:09:25;10.50;99.90
12374;DHT22;6251;51.762;8.660;2023-03-30T19:19:25;10.50;99.90
12374;DHT22;6251;51.762;8.660;2023-03-30T19:29:26;10.20;99.90
12374;DHT22;6251;51.762;8.660;2023-03-30T19:39:36;10.20;99.90
12374;DHT22;6251;51.762;8.660;2023-03-30T19:49:37;10.30;99.90
12374;DHT22;6251;51.762;8.660;2023-03-30T19:59:38;10.30;99.90
12374;DHT22;6251;51.762;8.660;2023-03-30T20:09:39;10.20;99.90
12374;DHT22;6251;51.762;8.660;2023-03-30T20:19:40;10.30;99.90
12374;DHT22;6251;51.762;8.660;2023-03-30T20:29:42;10.30;99.90
12374;DHT22;6251;51.762;8.660;2023-03-30T20:39:42;10.30;99.90
12374;DHT22;6251;51.762;8.660;2023-03-30T20:49:43;10.10;99.90
12374;DHT22;6251;51.762;8.660;2023-03-30T20:59:45;10.00;99.90
12374;DHT22;6251;51.762;8.660;2023-03-30T23:01:41;9.40;99.90
12374;DHT22;6251;51.762;8.660;2023-03-30T23:11:41;9.30;99.90
